Time;durP1;ratioP1;P1;durP2;ratioP2;P2;SDS_P1;SDS_P2;PMS_P1;PMS_P2;Temp;Humidity;BMP_temperature;BMP_pressure;BME280_temperature;BME280_humidity;BME280_pressure;Samples;Min_cycle;Max_cycle;Signal;HPM_P1;HPM_P2
2024/03/14 00:02:11;;;;;;;;;;;11.60;99.90;;;;;;5044488;28;19923;-85
2024/03/14 00:04:37;;;;;;;;;;;11.70;1.00;;;;;;5046520;28;19908;-84
2024/03/14 00:07:02;;;;;;;;;;;11.70;1.00;;;;;;5043734;28;20409;-85
2024/03/14 00:09:29;;;;;;;;;;;11.70;1.00;;;;;;5046771;28;20398;-85
2024/03/14 00:11:55;;;;;;;;;;;11.70;1.00;;;;;;5045666;28;19913;-85
2024/03/14 00:14:21;;;;;;;;;;;11.70;1.00;;;;;;5040750;28;20370;-84
2024/03/14 00:16:46;;;;;;;;;;;11.70;1.00;;;;;;5042174;28;19987;-85
2024/03/14 00:19:12;;;;;;;;;;;11.60;1.00;;;;;;5046441;28;19917;-85
2024/03/14 00:21:39;;;;;;;;;;;11.60;1.00;;;;;;5047167;28;19948;-84
2024/03/14 00:24:06;;;;;;;;;;;11.60;1.00;;;;;;5048034;28;19920;-83
2024/03/14 00:26:32;;;;;;;;;;;11.60;1.00;;;;;;5044463;28;19936;-82
2024/03/14 00:28:58;;;;;;;;;;;11.60;1.00;;;;;;5048794;28;19928;-84
2024/03/14 00:31:24;;;;;;;;;;;11.60;1.00;;;;;;5042385;28;20406;-85
2024/03/14 00:33:50;;;;;;;;;;;11.60;1.00;;;;;;5044840;28;20004;-82
2024/03/14 00:36:15;;;;;;;;;;;11.50;1.00;;;;;;5043940;28;20676;-82
2024/03/14 00:38:41;;;;;;;;;;;11.50;1.00;;;;;;5042632;28;19996;-84
2024/03/14 00:41:14;;;;;;;;;;;11.50;1.00;;;;;;5042731;28;19920;-84
2024/03/14 00:43:39;;;;;;;;;;;11.50;1.00;;;;;;5044450;28;19971;-86
2024/03/14 00:46:05;;;;;;;;;;;11.50;1.00;;;;;;5042763;28;19960;-85
2024/03/14 00:48:32;;;;;;;;;;;11.50;1.00;;;;;;5043386;28;19913;-85
2024/03/14 00:51:01;;;;;;;;;;;11.40;1.00;;;;;;5043419;28;19976;-85
2024/03/14 00:53:28;;;;;;;;;;;11.40;1.00;;;;;;5048546;28;19913;-85
2024/03/14 00:55:53;;;;;;;;;;;11.40;1.00;;;;;;5045818;28;19921;-85
2024/03/14 00:58:19;;;;;;;;;;;11.40;1.00;;;;;;5040415;28;21654;-85
2024/03/14 01:00:44;;;;;;;;;;;11.30;1.00;;;;;;5042650;28;20394;-83
2024/03/14 01:03:10;;;;;;;;;;;11.30;1.00;;;;;;5039981;28;20011;-84
2024/03/14 01:05:37;;;;;;;;;;;11.30;1.00;;;;;;5043682;28;19913;-83
2024/03/14 01:08:05;;;;;;;;;;;11.20;1.00;;;;;;5040085;28;20369;-85
2024/03/14 01:10:31;;;;;;;;;;;11.20;1.00;;;;;;5042494;28;19964;-85
2024/03/14 01:12:56;;;;;;;;;;;11.20;1.00;;;;;;5041183;28;21642;-84
2024/03/14 01:15:22;;;;;;;;;;;11.20;1.00;;;;;;5042454;28;20397;-84
2024/03/14 01:17:48;;;;;;;;;;;11.30;1.00;;;;;;5039361;28;19913;-85
2024/03/14 01:20:16;;;;;;;;;;;11.10;1.00;;;;;;5044541;28;20035;-83
2024/03/14 01:22:41;;;;;;;;;;;11.10;1.00;;;;;;5039210;28;19939;-85
2024/03/14 01:25:07;;;;;;;;;;;11.10;1.00;;;;;;5043432;28;19917;-85
2024/03/14 01:27:33;;;;;;;;;;;11.10;1.00;;;;;;5042153;28;19916;-84
2024/03/14 01:29:59;;;;;;;;;;;11.10;1.00;;;;;;5038988;28;19920;-84
2024/03/14 01:32:24;;;;;;;;;;;11.10;1.00;;;;;;5039836;28;20104;-85
2024/03/14 01:34:50;;;;;;;;;;;11.10;1.00;;;;;;5042410;28;20016;-85
2024/03/14 01:37:15;;;;;;;;;;;11.10;1.00;;;;;;5040490;28;19913;-85
2024/03/14 01:39:41;;;;;;;;;;;11.10;1.00;;;;;;5045556;28;19912;-84
2024/03/14 01:42:10;;;;;;;;;;;11.00;1.00;;;;;;5060429;28;19921;-83
2024/03/14 01:44:56;;;;;;;;;;;11.00;1.00;;;;;;5044709;28;19919;-83
2024/03/14 01:47:25;;;;;;;;;;;10.90;1.00;;;;;;5042754;28;19912;-85
2024/03/14 01:49:51;;;;;;;;;;;10.90;1.00;;;;;;5043565;28;20023;-85
2024/03/14 01:52:24;;;;;;;;;;;10.90;1.00;;;;;;5045475;28;19971;-85
2024/03/14 01:54:50;;;;;;;;;;;10.80;1.00;;;;;;5038537;28;20294;-84
2024/03/14 01:57:15;;;;;;;;;;;10.80;1.00;;;;;;5044678;28;19913;-85
2024/03/14 01:59:41;;;;;;;;;;;10.70;1.00;;;;;;5048520;28;19920;-85
2024/03/14 02:02:07;;;;;;;;;;;10.70;1.00;;;;;;5044674;28;19921;-84
2024/03/14 02:04:43;;;;;;;;;;;10.70;1.00;;;;;;5051463;28;19981;-84
2024/03/14 02:07:09;;;;;;;;;;;10.60;1.00;;;;;;5045937;28;19952;-84
2024/03/14 02:09:35;;;;;;;;;;;10.60;1.00;;;;;;5045879;28;20519;-82
2024/03/14 02:12:04;;;;;;;;;;;10.60;1.00;;;;;;5043882;28;19913;-82
2024/03/14 02:14:30;;;;;;;;;;;10.50;1.00;;;;;;5039376;28;19913;-84
2024/03/14 02:16:56;;;;;;;;;;;10.50;1.00;;;;;;5042822;28;19960;-84
2024/03/14 02:19:21;;;;;;;;;;;10.50;1.00;;;;;;5039675;28;19998;-85
2024/03/14 02:21:48;;;;;;;;;;;10.50;1.00;;;;;;5041599;28;19969;-83
2024/03/14 02:24:13;;;;;;;;;;;10.40;1.00;;;;;;5040518;28;19917;-85
2024/03/14 02:26:40;;;;;;;;;;;10.40;1.00;;;;;;5042239;28;19925;-84
2024/03/14 02:29:07;;;;;;;;;;;10.40;1.00;;;;;;5044123;28;19919;-83
2024/03/14 02:31:33;;;;;;;;;;;10.30;1.00;;;;;;5044534;28;20298;-85
2024/03/14 02:33:58;;;;;;;;;;;10.30;1.00;;;;;;5043787;28;19917;-85
2024/03/14 02:36:31;;;;;;;;;;;10.30;1.00;;;;;;5046428;28;20341;-84
2024/03/14 02:38:56;;;;;;;;;;;10.30;1.00;;;;;;5050823;28;19917;-84
2024/03/14 02:41:22;;;;;;;;;;;10.30;1.00;;;;;;5044990;28;19917;-85
2024/03/14 02:43:51;;;;;;;;;;;10.20;1.00;;;;;;5055115;28;20461;-86
2024/03/14 02:46:17;;;;;;;;;;;10.20;1.00;;;;;;5050173;28;20268;-82
2024/03/14 02:48:44;;;;;;;;;;;10.20;1.00;;;;;;5051738;28;19920;-83
2024/03/14 02:51:10;;;;;;;;;;;10.20;1.00;;;;;;5052426;28;19912;-85
2024/03/14 02:53:36;;;;;;;;;;;10.20;1.00;;;;;;5053030;28;20291;-85
2024/03/14 02:56:02;;;;;;;;;;;10.30;1.00;;;;;;5046851;28;19924;-83
2024/03/14 02:58:27;;;;;;;;;;;10.20;1.00;;;;;;5050068;28;19927;-84
2024/03/14 03:00:56;;;;;;;;;;;10.20;1.00;;;;;;5052015;28;19944;-84
2024/03/14 03:03:22;;;;;;;;;;;10.20;1.00;;;;;;5053095;28;19917;-84
2024/03/14 03:05:48;;;;;;;;;;;10.20;1.00;;;;;;5042601;28;19932;-83
2024/03/14 03:08:17;;;;;;;;;;;10.20;1.00;;;;;;5057060;28;19917;-85
2024/03/14 03:10:42;;;;;;;;;;;10.10;1.00;;;;;;5052121;28;20385;-84
2024/03/14 03:13:09;;;;;;;;;;;10.20;1.00;;;;;;5050571;28;19913;-83
2024/03/14 03:15:35;;;;;;;;;;;10.10;1.00;;;;;;5049701;28;20337;-85
2024/03/14 03:18:01;;;;;;;;;;;10.10;1.00;;;;;;5048346;28;19917;-84
2024/03/14 03:20:26;;;;;;;;;;;10.10;1.00;;;;;;5049739;28;19941;-84
2024/03/14 03:23:08;;;;;;;;;;;10.10;1.00;;;;;;5059158;28;20417;-85
2024/03/14 03:25:34;;;;;;;;;;;10.10;1.00;;;;;;5052633;28;19920;-85
2024/03/14 03:28:03;;;;;;;;;;;10.10;1.00;;;;;;5049001;28;19913;-84
2024/03/14 03:30:29;;;;;;;;;;;10.10;1.00;;;;;;5051407;28;19917;-85
2024/03/14 03:32:54;;;;;;;;;;;10.10;1.00;;;;;;5047633;28;19927;-84
2024/03/14 03:35:21;;;;;;;;;;;10.10;1.00;;;;;;5047306;28;20530;-85
2024/03/14 03:37:47;;;;;;;;;;;10.10;1.00;;;;;;5047291;28;19913;-82
2024/03/14 03:40:21;;;;;;;;;;;10.00;1.00;;;;;;5048346;28;19978;-84
2024/03/14 03:42:47;;;;;;;;;;;10.00;1.00;;;;;;5050477;28;19969;-84
2024/03/14 03:45:13;;;;;;;;;;;10.00;1.00;;;;;;5047611;28;20478;-85
2024/03/14 03:47:39;;;;;;;;;;;9.90;1.00;;;;;;5047174;28;20341;-84
2024/03/14 03:50:08;;;;;;;;;;;9.90;1.00;;;;;;5042776;28;19963;-85
2024/03/14 03:52:33;;;;;;;;;;;9.90;1.00;;;;;;5045446;28;19920;-85
2024/03/14 03:54:59;;;;;;;;;;;9.80;1.00;;;;;;5044320;28;19959;-81
2024/03/14 03:57:24;;;;;;;;;;;9.80;1.00;;;;;;5046880;28;19983;-85
2024/03/14 03:59:50;;;;;;;;;;;9.80;1.00;;;;;;5043400;28;20333;-83
2024/03/14 04:02:18;;;;;;;;;;;9.80;1.00;;;;;;5044722;28;20374;-84
2024/03/14 04:04:44;;;;;;;;;;;9.80;1.00;;;;;;5047353;28;19935;-84
2024/03/14 04:07:14;;;;;;;;;;;9.70;1.00;;;;;;5041756;28;19925;-85
2024/03/14 04:09:44;;;;;;;;;;;9.70;1.00;;;;;;5044718;28;19920;-85
2024/03/14 04:12:10;;;;;;;;;;;9.70;1.00;;;;;;5042967;28;19952;-85
2024/03/14 04:14:40;;;;;;;;;;;9.70;1.00;;;;;;5046090;28;19920;-85
2024/03/14 04:17:07;;;;;;;;;;;9.70;1.00;;;;;;5044379;28;19913;-85
2024/03/14 04:19:32;;;;;;;;;;;9.70;1.00;;;;;;5043908;28;19916;-85
2024/03/14 04:21:58;;;;;;;;;;;9.60;1.00;;;;;;5039363;28;20463;-85
2024/03/14 04:24:25;;;;;;;;;;;9.60;1.00;;;;;;5045343;28;20405;-85
2024/03/14 04:26:51;;;;;;;;;;;9.60;1.00;;;;;;5036604;28;20306;-84
2024/03/14 04:29:16;;;;;;;;;;;9.60;1.00;;;;;;5038146;28;19916;-81
2024/03/14 04:31:42;;;;;;;;;;;9.50;1.00;;;;;;5042894;28;19917;-82
2024/03/14 04:34:09;;;;;;;;;;;9.50;1.00;;;;;;5045892;28;19913;-85
2024/03/14 04:36:37;;;;;;;;;;;9.50;1.00;;;;;;5039084;28;20405;-85
2024/03/14 04:39:08;;;;;;;;;;;9.50;1.00;;;;;;5042913;28;20709;-85
2024/03/14 04:41:35;;;;;;;;;;;9.50;1.00;;;;;;5041569;28;19944;-85
2024/03/14 04:44:03;;;;;;;;;;;9.50;1.00;;;;;;5036633;28;19944;-82
2024/03/14 04:46:29;;;;;;;;;;;9.50;1.00;;;;;;5039461;28;20284;-85
2024/03/14 04:48:54;;;;;;;;;;;9.40;1.00;;;;;;5044527;28;19917;-84
2024/03/14 04:51:20;;;;;;;;;;;9.40;1.00;;;;;;5043693;28;19955;-84
2024/03/14 04:53:46;;;;;;;;;;;9.40;1.00;;;;;;5042340;28;19913;-83
2024/03/14 04:56:11;;;;;;;;;;;9.30;1.00;;;;;;5041942;28;19995;-84
2024/03/14 04:58:37;;;;;;;;;;;9.30;1.00;;;;;;5041566;28;19924;-84
2024/03/14 05:01:03;;;;;;;;;;;9.30;1.00;;;;;;5044217;28;20015;-85
2024/03/14 05:03:28;;;;;;;;;;;9.30;1.00;;;;;;5036592;28;20294;-85
2024/03/14 05:05:56;;;;;;;;;;;9.30;1.00;;;;;;5042262;28;20008;-82
2024/03/14 05:08:22;;;;;;;;;;;9.20;1.00;;;;;;5043379;28;19913;-85
2024/03/14 05:10:47;;;;;;;;;;;9.20;1.00;;;;;;5043705;28;19946;-84
2024/03/14 05:13:13;;;;;;;;;;;9.10;1.00;;;;;;5042360;28;19951;-84
2024/03/14 05:15:38;;;;;;;;;;;9.10;1.00;;;;;;5040660;28;19960;-84
2024/03/14 05:18:05;;;;;;;;;;;9.10;1.00;;;;;;5042156;28;19917;-85
2024/03/14 05:20:31;;;;;;;;;;;9.10;1.00;;;;;;5045127;28;20921;-85
2024/03/14 05:22:57;;;;;;;;;;;9.10;1.00;;;;;;5046597;28;19966;-85
2024/03/14 05:25:23;;;;;;;;;;;9.10;1.00;;;;;;5044449;28;20401;-85
2024/03/14 05:27:50;;;;;;;;;;;9.10;1.00;;;;;;5043652;28;19914;-84
2024/03/14 05:30:17;;;;;;;;;;;9.10;1.00;;;;;;5045794;28;19913;-85
2024/03/14 05:32:44;;;;;;;;;;;9.00;1.00;;;;;;5042796;28;19920;-83
2024/03/14 05:35:10;;;;;;;;;;;9.00;1.00;;;;;;5039881;28;20011;-83
2024/03/14 05:37:36;;;;;;;;;;;9.00;1.00;;;;;;5041200;28;19917;-85
2024/03/14 05:40:02;;;;;;;;;;;9.00;1.00;;;;;;5043918;28;19916;-85
2024/03/14 05:42:27;;;;;;;;;;;8.90;1.00;;;;;;5040557;28;19925;-83
2024/03/14 05:44:56;;;;;;;;;;;8.90;1.00;;;;;;5041415;28;20556;-82
2024/03/14 05:47:21;;;;;;;;;;;8.90;1.00;;;;;;5039066;28;19917;-85
2024/03/14 05:49:47;;;;;;;;;;;8.90;1.00;;;;;;5044719;28;19912;-85
2024/03/14 05:52:12;;;;;;;;;;;8.90;1.00;;;;;;5043999;28;20409;-86
2024/03/14 05:54:38;;;;;;;;;;;8.90;1.00;;;;;;5039797;28;19921;-83
2024/03/14 05:57:04;;;;;;;;;;;8.90;1.00;;;;;;5041255;28;20543;-84
2024/03/14 05:59:30;;;;;;;;;;;9.00;1.00;;;;;;5046168;28;19956;-84
2024/03/14 06:01:56;;;;;;;;;;;9.00;1.00;;;;;;5048352;28;20286;-84
2024/03/14 06:04:22;;;;;;;;;;;9.10;1.00;;;;;;5052096;28;19928;-85
2024/03/14 06:06:50;;;;;;;;;;;9.10;1.00;;;;;;5048414;28;19952;-85
2024/03/14 06:09:17;;;;;;;;;;;9.10;1.00;;;;;;5050637;28;19916;-83
2024/03/14 06:11:42;;;;;;;;;;;9.10;1.00;;;;;;5050921;28;19916;-84
2024/03/14 06:14:08;;;;;;;;;;;9.10;1.00;;;;;;5047870;28;19913;-83
2024/03/14 06:16:34;;;;;;;;;;;9.20;1.00;;;;;;5053695;28;20278;-84
2024/03/14 06:18:59;;;;;;;;;;;9.30;1.00;;;;;;5046587;28;19999;-83
2024/03/14 06:21:25;;;;;;;;;;;9.40;1.00;;;;;;5053812;28;19992;-85
2024/03/14 06:23:50;;;;;;;;;;;9.50;1.00;;;;;;5050101;28;19917;-86
2024/03/14 06:26:16;;;;;;;;;;;9.60;1.00;;;;;;5050320;28;19939;-84
2024/03/14 06:28:42;;;;;;;;;;;9.80;1.00;;;;;;5046293;28;19916;-85
2024/03/14 06:31:07;;;;;;;;;;;10.10;1.00;;;;;;5048570;28;22412;-84
2024/03/14 06:33:33;;;;;;;;;;;11.00;1.00;;;;;;5047081;28;19999;-86
2024/03/14 06:35:59;;;;;;;;;;;12.10;1.00;;;;;;5042049;28;19919;-85
2024/03/14 06:38:25;;;;;;;;;;;13.30;99.90;;;;;;5045286;28;19927;-86
2024/03/14 06:40:52;;;;;;;;;;;14.40;99.90;;;;;;5052944;28;19912;-86
2024/03/14 06:43:24;;;;;;;;;;;15.80;99.90;;;;;;5058636;28;19931;-86
2024/03/14 06:45:49;;;;;;;;;;;17.70;1.00;;;;;;5044856;28;20016;-86
2024/03/14 06:48:15;;;;;;;;;;;19.00;15.60;;;;;;5045740;28;20012;-85
2024/03/14 06:50:41;;;;;;;;;;;19.80;1.00;;;;;;5050549;28;19978;-86
2024/03/14 06:53:07;;;;;;;;;;;19.00;1.00;;;;;;5049169;28;20307;-83
2024/03/14 06:55:33;;;;;;;;;;;17.90;1.00;;;;;;5041984;28;19917;-85
2024/03/14 06:57:59;;;;;;;;;;;17.00;1.00;;;;;;5047867;28;19920;-80
2024/03/14 07:00:24;;;;;;;;;;;16.30;1.00;;;;;;5045789;28;19913;-81
2024/03/14 07:02:50;;;;;;;;;;;15.70;1.00;;;;;;5060687;28;19928;-79
2024/03/14 07:05:15;;;;;;;;;;;15.20;1.00;;;;;;5044980;28;19913;-79
2024/03/14 07:07:44;;;;;;;;;;;14.80;1.00;;;;;;5045200;28;19932;-82
2024/03/14 07:12:49;;;;;;;;;;;14.30;99.90;;;;;;5090052;28;19931;-83
2024/03/14 07:15:17;;;;;;;;;;;14.30;99.90;;;;;;5090342;28;19912;-85
2024/03/14 07:17:43;;;;;;;;;;;14.30;99.90;;;;;;5090908;28;20000;-84
2024/03/14 07:20:16;;;;;;;;;;;14.30;99.90;;;;;;5092360;28;19948;-84
2024/03/14 07:22:43;;;;;;;;;;;14.40;99.90;;;;;;5073560;28;19921;-85
2024/03/14 07:25:09;;;;;;;;;;;14.50;99.90;;;;;;5069617;28;19916;-84
2024/03/14 07:27:38;;;;;;;;;;;14.70;99.90;;;;;;5069356;28;19917;-84
2024/03/14 07:30:04;;;;;;;;;;;14.90;99.90;;;;;;5073735;28;19912;-84
2024/03/14 07:32:29;;;;;;;;;;;15.30;61.20;;;;;;5073978;28;19924;-82
2024/03/14 07:34:56;;;;;;;;;;;15.70;1.00;;;;;;5070318;28;19997;-85
2024/03/14 07:37:25;;;;;;;;;;;17.00;1.00;;;;;;5068214;28;20051;-85
2024/03/14 07:39:53;;;;;;;;;;;18.00;1.00;;;;;;5059837;28;19913;-86
2024/03/14 07:42:24;;;;;;;;;;;18.80;1.00;;;;;;5082569;28;19924;-82
2024/03/14 07:44:50;;;;;;;;;;;19.10;1.00;;;;;;5084026;28;19913;-84
2024/03/14 07:47:23;;;;;;;;;;;20.30;1.00;;;;;;5069681;28;19923;-82
2024/03/14 07:49:49;;;;;;;;;;;21.90;1.00;;;;;;5072200;28;20687;-84
2024/03/14 07:52:17;;;;;;;;;;;23.20;99.90;;;;;;5071716;28;19923;-85
2024/03/14 07:54:45;;;;;;;;;;;24.30;99.90;;;;;;5073974;28;19920;-83
2024/03/14 07:57:15;;;;;;;;;;;24.90;99.90;;;;;;5067665;28;19912;-84
2024/03/14 07:59:41;;;;;;;;;;;24.80;99.90;;;;;;5072461;28;19912;-83
2024/03/14 08:02:12;;;;;;;;;;;24.00;99.90;;;;;;5069294;28;19917;-82
2024/03/14 08:04:38;;;;;;;;;;;23.50;99.90;;;;;;5066350;28;19920;-84
2024/03/14 08:07:10;;;;;;;;;;;23.30;99.90;;;;;;5068871;28;20113;-83
2024/03/14 08:09:38;;;;;;;;;;;24.80;99.90;;;;;;5069772;28;19985;-82
2024/03/14 08:12:05;;;;;;;;;;;26.80;99.90;;;;;;5065066;28;20011;-84
2024/03/14 08:14:30;;;;;;;;;;;28.30;99.90;;;;;;5071831;28;19912;-84
2024/03/14 08:16:56;;;;;;;;;;;28.00;99.90;;;;;;5074484;28;19924;-84
2024/03/14 08:19:23;;;;;;;;;;;27.50;99.90;;;;;;5073521;28;19931;-86
2024/03/14 08:21:48;;;;;;;;;;;26.70;99.90;;;;;;5067678;28;19956;-82
2024/03/14 08:24:16;;;;;;;;;;;26.60;99.90;;;;;;5081669;28;19989;-85
2024/03/14 08:26:43;;;;;;;;;;;26.60;99.90;;;;;;5084528;28;19913;-83
2024/03/14 08:29:10;;;;;;;;;;;28.40;99.90;;;;;;5069689;28;19913;-84
2024/03/14 08:31:36;;;;;;;;;;;30.60;99.90;;;;;;5060996;28;19912;-84
2024/03/14 08:34:05;;;;;;;;;;;32.30;99.90;;;;;;5086103;28;19918;-84
2024/03/14 08:36:31;;;;;;;;;;;33.10;99.90;;;;;;5064155;28;19912;-84
2024/03/14 08:38:56;;;;;;;;;;;34.80;99.90;;;;;;5067004;28;19920;-85
2024/03/14 08:41:22;;;;;;;;;;;35.50;99.90;;;;;;5086550;28;20367;-84
2024/03/14 08:43:48;;;;;;;;;;;36.40;99.90;;;;;;5066868;28;19920;-84
2024/03/14 08:46:15;;;;;;;;;;;37.20;99.90;;;;;;5058895;28;19917;-85
2024/03/14 08:48:41;;;;;;;;;;;36.70;99.90;;;;;;5069011;28;19912;-84
2024/03/14 08:51:07;;;;;;;;;;;35.20;99.90;;;;;;5087317;28;20069;-84
2024/03/14 08:56:19;;;;;;;;;;;31.30;99.90;;;;;;5072322;28;19919;-83
2024/03/14 08:58:47;;;;;;;;;;;30.70;99.90;;;;;;5086829;28;19960;-86
2024/03/14 09:01:12;;;;;;;;;;;30.30;99.90;;;;;;5063156;28;20374;-86
2024/03/14 09:03:38;;;;;;;;;;;30.40;99.90;;;;;;5071538;28;19919;-86
2024/03/14 09:06:05;;;;;;;;;;;30.10;99.90;;;;;;5066457;28;19925;-86
2024/03/14 09:08:30;;;;;;;;;;;29.50;99.90;;;;;;5069014;28;19936;-85
2024/03/14 09:10:56;;;;;;;;;;;28.90;99.90;;;;;;5065945;28;19943;-85
2024/03/14 09:13:21;;;;;;;;;;;28.30;99.90;;;;;;5067110;28;19916;-85
2024/03/14 09:15:50;;;;;;;;;;;27.90;99.90;;;;;;5060397;28;19913;-87
2024/03/14 09:18:17;;;;;;;;;;;28.10;99.90;;;;;;5068298;28;19919;-85
2024/03/14 09:20:44;;;;;;;;;;;28.20;99.90;;;;;;5069690;28;20337;-87
2024/03/14 09:23:15;;;;;;;;;;;28.50;99.90;;;;;;5068975;28;19962;-86
2024/03/14 09:25:41;;;;;;;;;;;28.70;99.90;;;;;;5066292;28;19912;-86
2024/03/14 09:28:08;;;;;;;;;;;28.60;99.90;;;;;;5058939;28;20285;-86
2024/03/14 09:30:34;;;;;;;;;;;28.00;99.90;;;;;;5070449;28;19920;-86
2024/03/14 09:33:00;;;;;;;;;;;27.10;99.90;;;;;;5071700;28;20278;-85
2024/03/14 09:35:26;;;;;;;;;;;26.60;99.90;;;;;;5067040;28;19994;-85
2024/03/14 09:37:54;;;;;;;;;;;26.50;99.90;;;;;;5072182;28;19908;-85
2024/03/14 09:40:21;;;;;;;;;;;26.20;99.90;;;;;;5070482;28;19916;-85
2024/03/14 09:42:56;;;;;;;;;;;25.90;99.90;;;;;;5072550;28;20002;-86
2024/03/14 09:45:22;;;;;;;;;;;26.30;99.90;;;;;;5070048;28;19913;-86
2024/03/14 09:47:48;;;;;;;;;;;28.20;99.90;;;;;;5072351;28;19909;-85
2024/03/14 09:50:18;;;;;;;;;;;30.20;99.90;;;;;;5066584;28;20308;-86
2024/03/14 09:52:44;;;;;;;;;;;32.10;99.90;;;;;;5069997;28;20271;-85
2024/03/14 09:55:13;;;;;;;;;;;33.50;99.90;;;;;;5072640;28;19916;-85
2024/03/14 09:57:39;;;;;;;;;;;34.20;99.90;;;;;;5065108;28;19916;-86
2024/03/14 10:00:09;;;;;;;;;;;34.30;99.90;;;;;;5082099;28;19923;-86
2024/03/14 10:02:35;;;;;;;;;;;35.40;99.90;;;;;;5065051;28;19970;-89
2024/03/14 10:05:01;;;;;;;;;;;36.50;99.90;;;;;;5076593;28;19917;-86
2024/03/14 10:07:29;;;;;;;;;;;36.20;99.90;;;;;;5070701;28;19970;-86
2024/03/14 10:09:54;;;;;;;;;;;34.60;99.90;;;;;;5058981;28;19916;-85
2024/03/14 10:12:21;;;;;;;;;;;32.90;99.90;;;;;;5067293;28;20341;-85
2024/03/14 10:15:06;;;;;;;;;;;31.50;99.90;;;;;;5064618;28;19947;-86
2024/03/14 10:17:32;;;;;;;;;;;30.60;99.90;;;;;;5053818;28;19935;-85
2024/03/14 10:19:58;;;;;;;;;;;30.50;99.90;;;;;;5060873;28;20316;-84
2024/03/14 10:22:26;;;;;;;;;;;31.90;99.90;;;;;;5067709;28;19991;-86
2024/03/14 10:24:51;;;;;;;;;;;33.50;99.90;;;;;;5065702;28;19958;-86
2024/03/14 10:27:19;;;;;;;;;;;34.20;99.90;;;;;;5069796;28;19916;-86
2024/03/14 10:29:50;;;;;;;;;;;34.80;99.90;;;;;;5066860;28;19923;-85
2024/03/14 10:32:16;;;;;;;;;;;35.10;99.90;;;;;;5067167;28;19958;-86
2024/03/14 10:34:43;;;;;;;;;;;35.30;99.90;;;;;;5068641;28;20366;-87
2024/03/14 10:37:13;;;;;;;;;;;35.60;99.90;;;;;;5071081;28;20370;-86
2024/03/14 10:39:42;;;;;;;;;;;36.10;99.90;;;;;;5063546;28;20299;-85
2024/03/14 10:42:07;;;;;;;;;;;36.30;99.90;;;;;;5059130;28;20371;-87
2024/03/14 10:44:33;;;;;;;;;;;36.50;99.90;;;;;;5060339;28;19923;-85
2024/03/14 10:46:59;;;;;;;;;;;35.80;99.90;;;;;;5075142;28;19908;-87
2024/03/14 10:49:24;;;;;;;;;;;35.80;99.90;;;;;;5058731;28;19963;-86
2024/03/14 10:51:51;;;;;;;;;;;36.30;99.90;;;;;;5068169;28;19913;-86
2024/03/14 10:54:22;;;;;;;;;;;35.30;99.90;;;;;;5070977;28;19947;-85
2024/03/14 10:56:49;;;;;;;;;;;33.40;99.90;;;;;;5067486;28;19919;-87
2024/03/14 10:59:16;;;;;;;;;;;33.30;99.90;;;;;;5055003;28;19916;-86
2024/03/14 11:01:50;;;;;;;;;;;33.60;99.90;;;;;;5055967;28;19913;-86
2024/03/14 11:04:20;;;;;;;;;;;34.00;99.90;;;;;;5072809;28;19953;-87
2024/03/14 11:06:49;;;;;;;;;;;34.70;99.90;;;;;;5064071;28;19954;-87
2024/03/14 11:09:17;;;;;;;;;;;35.20;99.90;;;;;;5069986;28;19909;-87
2024/03/14 11:11:45;;;;;;;;;;;34.90;99.90;;;;;;5062870;28;20371;-86
2024/03/14 11:14:11;;;;;;;;;;;33.90;99.90;;;;;;5064344;28;20031;-87
2024/03/14 11:16:39;;;;;;;;;;;33.90;99.90;;;;;;5074491;28;19958;-85
2024/03/14 11:19:06;;;;;;;;;;;34.40;99.90;;;;;;5067537;28;19917;-86
2024/03/14 11:21:33;;;;;;;;;;;34.10;99.90;;;;;;5062514;28;19913;-86
2024/03/14 11:24:02;;;;;;;;;;;34.40;99.90;;;;;;5066900;28;19916;-84
2024/03/14 11:26:29;;;;;;;;;;;34.40;99.90;;;;;;5072564;28;19947;-86
2024/03/14 11:29:02;;;;;;;;;;;34.40;99.90;;;;;;5064816;28;19920;-85
2024/03/14 11:31:46;;;;;;;;;;;34.30;99.90;;;;;;5067736;28;20286;-85
2024/03/14 11:34:17;;;;;;;;;;;34.50;99.90;;;;;;5067097;28;19973;-86
2024/03/14 11:36:50;;;;;;;;;;;34.20;99.90;;;;;;5060350;28;20446;-86
2024/03/14 11:39:16;;;;;;;;;;;33.80;99.90;;;;;;5058295;28;19920;-85
2024/03/14 11:41:41;;;;;;;;;;;33.70;99.90;;;;;;5070602;28;19965;-86
2024/03/14 11:44:17;;;;;;;;;;;33.70;99.90;;;;;;5058352;28;20003;-86
2024/03/14 11:46:42;;;;;;;;;;;33.30;99.90;;;;;;5061640;28;20281;-86
2024/03/14 11:49:15;;;;;;;;;;;33.40;99.90;;;;;;5070850;28;19909;-86
2024/03/14 11:51:41;;;;;;;;;;;33.20;99.90;;;;;;5058886;28;19991;-85
2024/03/14 11:54:10;;;;;;;;;;;32.90;99.90;;;;;;5072561;28;20001;-85
2024/03/14 11:56:40;;;;;;;;;;;32.60;99.90;;;;;;5057071;28;20011;-86
2024/03/14 11:59:08;;;;;;;;;;;32.10;99.90;;;;;;5073938;28;19912;-86
2024/03/14 12:01:35;;;;;;;;;;;31.70;99.90;;;;;;5052065;28;20310;-86
2024/03/14 12:04:01;;;;;;;;;;;30.50;99.90;;;;;;5062427;28;19913;-84
2024/03/14 12:06:26;;;;;;;;;;;30.20;99.90;;;;;;5056833;28;20268;-85
2024/03/14 12:08:52;;;;;;;;;;;30.00;99.90;;;;;;5052222;28;19962;-86
2024/03/14 12:11:18;;;;;;;;;;;30.00;99.90;;;;;;5066279;28;19917;-85
2024/03/14 12:13:52;;;;;;;;;;;30.10;99.90;;;;;;5068289;28;19921;-85
2024/03/14 12:16:17;;;;;;;;;;;30.70;99.90;;;;;;5069777;28;20443;-84
2024/03/14 12:18:46;;;;;;;;;;;31.10;99.90;;;;;;5066309;28;19920;-87
2024/03/14 12:21:12;;;;;;;;;;;31.30;99.90;;;;;;5064545;28;19913;-85
2024/03/14 12:23:40;;;;;;;;;;;30.20;99.90;;;;;;5062024;28;19923;-85
2024/03/14 12:26:07;;;;;;;;;;;29.50;99.90;;;;;;5068750;28;19912;-85
2024/03/14 12:28:34;;;;;;;;;;;30.10;99.90;;;;;;5071363;28;19912;-83
2024/03/14 12:31:00;;;;;;;;;;;30.40;99.90;;;;;;5059755;28;20003;-86
2024/03/14 12:33:30;;;;;;;;;;;30.70;99.90;;;;;;5048724;28;19913;-85
2024/03/14 12:35:56;;;;;;;;;;;31.20;99.90;;;;;;5082517;28;19966;-86
2024/03/14 12:38:27;;;;;;;;;;;31.50;99.90;;;;;;5065726;28;19991;-85
2024/03/14 12:40:53;;;;;;;;;;;31.80;99.90;;;;;;5071948;28;19908;-86
2024/03/14 12:43:19;;;;;;;;;;;31.90;99.90;;;;;;5070403;28;19923;-85
2024/03/14 12:45:45;;;;;;;;;;;31.90;99.90;;;;;;5069002;28;19920;-85
2024/03/14 12:48:13;;;;;;;;;;;32.20;99.90;;;;;;5069801;28;19963;-86
2024/03/14 12:50:39;;;;;;;;;;;32.20;99.90;;;;;;5069016;28;19938;-85
2024/03/14 12:53:05;;;;;;;;;;;32.20;99.90;;;;;;5063919;28;19912;-86
2024/03/14 12:55:31;;;;;;;;;;;31.70;99.90;;;;;;5072700;28;19908;-85
2024/03/14 12:57:57;;;;;;;;;;;31.10;99.90;;;;;;5072455;28;20428;-85
2024/03/14 13:00:26;;;;;;;;;;;30.50;99.90;;;;;;5072022;28;19918;-85
2024/03/14 13:02:56;;;;;;;;;;;30.00;99.90;;;;;;5071888;28;19920;-84
2024/03/14 13:05:22;;;;;;;;;;;30.00;99.90;;;;;;5072069;28;19921;-85
2024/03/14 13:08:06;;;;;;;;;;;30.20;99.90;;;;;;5070060;28;20616;-85
2024/03/14 13:10:35;;;;;;;;;;;30.60;99.90;;;;;;5067931;28;20302;-86
2024/03/14 13:13:01;;;;;;;;;;;30.80;99.90;;;;;;5106595;22;19932;-85
2024/03/14 13:15:27;;;;;;;;;;;30.80;99.90;;;;;;5067099;28;19921;-85
2024/03/14 13:17:53;;;;;;;;;;;30.30;99.90;;;;;;5065080;28;19909;-86
2024/03/14 13:20:25;;;;;;;;;;;29.70;99.90;;;;;;5055501;28;19916;-86
2024/03/14 13:22:52;;;;;;;;;;;29.20;99.90;;;;;;5049626;28;19913;-85
2024/03/14 13:25:18;;;;;;;;;;;29.20;99.90;;;;;;5038238;28;19923;-85
2024/03/14 13:27:44;;;;;;;;;;;29.10;99.90;;;;;;5040434;28;19944;-86
2024/03/14 13:30:12;;;;;;;;;;;29.40;99.90;;;;;;5041807;28;19975;-84
2024/03/14 13:32:38;;;;;;;;;;;29.90;99.90;;;;;;5035851;28;19964;-85
2024/03/14 13:35:05;;;;;;;;;;;30.30;99.90;;;;;;5035326;28;19921;-86
2024/03/14 13:37:31;;;;;;;;;;;30.30;99.90;;;;;;5031220;28;19921;-86
2024/03/14 13:39:56;;;;;;;;;;;30.10;99.90;;;;;;5040725;28;21210;-86
2024/03/14 13:42:23;;;;;;;;;;;29.40;99.90;;;;;;5031603;28;19909;-85
2024/03/14 13:44:49;;;;;;;;;;;28.90;99.90;;;;;;5033409;28;19928;-86
2024/03/14 13:47:16;;;;;;;;;;;28.70;99.90;;;;;;5029659;28;19909;-85
2024/03/14 13:49:44;;;;;;;;;;;28.60;99.90;;;;;;5037202;28;19912;-85
2024/03/14 13:52:11;;;;;;;;;;;28.50;99.90;;;;;;5034237;28;19952;-86
2024/03/14 13:54:45;;;;;;;;;;;28.20;99.90;;;;;;5033398;28;19920;-87
2024/03/14 13:57:11;;;;;;;;;;;28.00;99.90;;;;;;5032953;28;19916;-87
2024/03/14 13:59:37;;;;;;;;;;;27.70;99.90;;;;;;5034693;28;19913;-85
2024/03/14 14:02:03;;;;;;;;;;;27.70;99.90;;;;;;5035990;28;19924;-86
2024/03/14 14:04:30;;;;;;;;;;;27.50;99.90;;;;;;5019868;28;19944;-85
2024/03/14 14:06:57;;;;;;;;;;;27.20;99.90;;;;;;5037309;28;19940;-86
2024/03/14 14:09:24;;;;;;;;;;;26.80;99.90;;;;;;5016975;28;19917;-87
2024/03/14 14:11:51;;;;;;;;;;;26.30;99.90;;;;;;5032597;28;20481;-86
2024/03/14 14:14:16;;;;;;;;;;;25.70;99.90;;;;;;5031732;28;19913;-87
2024/03/14 14:16:42;;;;;;;;;;;25.30;99.90;;;;;;5029228;28;19913;-86
2024/03/14 14:19:08;;;;;;;;;;;25.20;99.90;;;;;;5028963;28;19972;-86
2024/03/14 14:21:37;;;;;;;;;;;25.20;99.90;;;;;;5036071;28;20000;-86
2024/03/14 14:24:03;;;;;;;;;;;25.00;99.90;;;;;;5036807;28;19917;-86
2024/03/14 14:26:29;;;;;;;;;;;25.10;99.90;;;;;;5037346;28;19917;-87
2024/03/14 14:28:54;;;;;;;;;;;25.10;99.90;;;;;;5034407;28;20403;-86
2024/03/14 14:31:21;;;;;;;;;;;25.20;99.90;;;;;;5035173;28;19913;-86